METAR Reports From Nearby Airports

 

KLUD - Decatur, Texas, USA
Distance from Wildwood: OZO 5mi, 8km
Updated: Mar 31, 2020 5:15pm
Partly Cloudy
Partly Cloudy
 Wind van W
Wind: W 3 mph , 6 km/h
Temperatuur: 64°F , 18°C
Dauwpunt: 46°F , 8°C
Vochtigheid: 52%
Barometer: 30.03 inHg , 1016.9 hPa
Clouds: Partly Cloudy
Visibility: 10 miles , 16 km
Cloud details: Partly Cloudy 4300 ft
2020/03/31 22:15 KLUD 312215Z AUTO 28003KT 10SM SCT043 18/08 A3003 RMK AO2 T01840082
KXBP - Bridgeport, Texas, USA
Distance from Wildwood: WZW 11mi, 18km
Updated: Mar 31, 2020 5:15pm
Helder
Helder
 Wind van WNW
Wind: WNW 5 mph , 7 km/h
Temperatuur: 66°F , 19°C
Dauwpunt: 46°F , 8°C
Vochtigheid: 49%
Barometer: 30.05 inHg , 1017.6 hPa
Clouds: Helder
Visibility: 10 miles , 16 km
2020/03/31 22:15 KXBP 312215Z AUTO 30004KT 10SM CLR 19/08 A3005 RMK AO2 T01890081
 
K0F2 - Bowie, Texas, USA
Distance from Wildwood: NNW 24mi, 39km
Updated: Mar 31, 2020 5:15pm
Helder
Helder
 Wind van calm
Wind: Kalm
Temperatuur: 68°F , 20°C
Dauwpunt: 48°F , 9°C
Vochtigheid: 49%
Barometer: 30.03 inHg , 1016.9 hPa
Clouds: Helder
Visibility: 10 miles , 16 km
2020/03/31 22:15 K0F2 312215Z AUTO 00000KT 10SM CLR 20/09 A3003 RMK AO2 T01990091
KDTO - Denton, Texas, USA
Distance from Wildwood: O 27mi, 44km
Updated: Mar 31, 2020 4:53pm
Mostly Cloudy
Mostly Cloudy
 Wind van NW
Wind: NW 8 mph , 13 km/h
Temperatuur: 66°F , 19°C
Dauwpunt: 48°F , 9°C
Vochtigheid: 52%
Barometer: 30.03 inHg , 1016.9 hPa
Clouds: Mostly Cloudy
Visibility: 10 miles , 16 km
Cloud details: Mostly Cloudy 4200 ft
2020/03/31 21:53 KDTO 312153Z 32007KT 10SM BKN042 19/09 A3003 RMK AO2 SLP166 T01940094
 
KAFW - Ft Worth/Allianc, Texas, USA
Distance from Wildwood: ZO 29mi, 46km
Updated: Mar 31, 2020 4:53pm
Partly Cloudy
Partly Cloudy
 Wind van NNW
Wind: NNW 9 mph , 15 km/h
Temperatuur: 66°F , 19°C
Dauwpunt: 48°F , 9°C
Vochtigheid: 52%
Barometer: 30.03 inHg , 1016.9 hPa
Clouds: Partly Cloudy
Visibility: 10 miles , 16 km
Cloud details: Partly Cloudy 4100 ft
Partly Cloudy 25000 ft
2020/03/31 21:53 KAFW 312153Z 33008KT 10SM SCT041 SCT250 19/09 A3003 RMK AO2 SLP166 T01890089
KFTW - Fort Worth, Texas, USA
Distance from Wildwood: ZZO 34mi, 55km
Updated: Mar 31, 2020 4:53pm
Helder
Helder
 Wind van N
Wind: N 8 mph , 13 km/h, Windvlaag: 18 mph , 30 km/h
Temperatuur: 64°F , 18°C
Dauwpunt: 48°F , 9°C
Vochtigheid: 56%
Barometer: 30.03 inHg , 1016.9 hPa
Clouds: Helder
Visibility: 10 miles , 16 km
2020/03/31 21:53 KFTW 312153Z 35007G16KT 310V010 10SM CLR 18/09 A3003 RMK AO2 SLP165 T01780094
 
KNFW - Fort Worth Nas, Texas, USA
Distance from Wildwood: ZZO 36mi, 58km
Updated: Mar 31, 2020 4:52pm
Mostly Cloudy
Mostly Cloudy
 Wind van N
Wind: N 8 mph , 13 km/h
Temperatuur: 68°F , 20°C
Dauwpunt: 48°F , 9°C
Vochtigheid: 49%
Barometer: 30.04 inHg , 1017.3 hPa
Clouds: Mostly Cloudy
Visibility: 10 miles , 16 km
Cloud details: Partly Cloudy 4500 ft
Mostly Cloudy 25000 ft
2020/03/31 21:52 KNFW 312152Z 36007KT 10SM SCT045 BKN250 20/09 A3004 RMK AO2 SLP154 T02000089 VISNO N $
KGLE - Gainesville, Texas, USA
Distance from Wildwood: NO 38mi, 61km
Updated: Mar 31, 2020 5:15pm
Mostly Cloudy
Mostly Cloudy
 Wind van NO
Wind: NO 5 mph , 7 km/h
Temperatuur: 66°F , 19°C
Dauwpunt: 45°F , 7°C
Vochtigheid: 46%
Barometer: 30.04 inHg , 1017.3 hPa
Clouds: Mostly Cloudy
Visibility: 10 miles , 16 km
Cloud details: Mostly Cloudy 4400 ft
2020/03/31 22:15 KGLE 312215Z AUTO 05004KT 10SM BKN044 19/07 A3004 RMK AO2 T01870074 PWINO
 
KMWL - Mineral Wells, Texas, USA
Distance from Wildwood: ZW 41mi, 65km
Updated: Mar 31, 2020 4:53pm
Few Clouds
Few Clouds
 Wind van NNW
Wind: NNW 8 mph , 13 km/h
Temperatuur: 68°F , 20°C
Dauwpunt: 48°F , 9°C
Vochtigheid: 49%
Barometer: 30.02 inHg , 1016.6 hPa
Clouds: Few Clouds
Visibility: 10 miles , 16 km
Cloud details: Few Clouds 4100 ft
2020/03/31 21:53 KMWL 312153Z AUTO 34007KT 10SM FEW041 20/09 A3002 RMK AO2 SLP160 T02000089
KDFW - Dallas/Ft Worth, Texas, USA
Distance from Wildwood: OZO 45mi, 73km
Updated: Mar 31, 2020 4:53pm
Partly Cloudy
Partly Cloudy
 Wind van NNW
Wind: NNW 8 mph , 13 km/h
Temperatuur: 64°F , 18°C
Dauwpunt: 46°F , 8°C
Vochtigheid: 52%
Barometer: 30.02 inHg , 1016.6 hPa
Clouds: Partly Cloudy
Visibility: 10 miles , 16 km
Cloud details: Partly Cloudy 4400 ft
2020/03/31 21:53 KDFW 312153Z 34007KT 10SM SCT044 18/08 A3002 RMK AO2 SLP161 T01780083